Latest Weather Observations for Perth Airport

IDW60901

Issued at 3:21 am WST Monday 27 September 2021 (issued every 10 minutes, with the page automatically refreshed every 10 minutes)

About weather observations | Map of Perth area stations | Latest observations for Perth area | Other Formats
Station Details ID: 009021 Name: PERTH AIRPORT Lat: -31.93 Lon: 115.98 Height: 15.4 m
Data from the previous 72 hours. | See also: Recent months at Perth Airport
Date/Time
WST
Temp
°C
App
Temp
°C
Dew
Point
°C
Rel
Hum
%
Delta-T
°C
Wind Press
QNH
hPa
Press
MSL
hPa
Rain since
9am
mm
Dir  Spd
km/h
Gust
km/h
Spd
kts
Gust
kts
27/03:00am 10.9 9.9 10.3 96 0.3 NE 6 7 3 4 1010.2 1010.2 9.8
27/02:30am 11.0 10.0 10.4 96 0.3 NE 6 7 3 4 1010.3 1010.3 9.8
27/02:00am 11.6 10.6 11.0 96 0.3 ENE 7 9 4 5 1010.2 1010.2 9.8
27/01:30am 11.5 10.4 10.7 95 0.4 NE 7 9 4 5 1010.2 1010.2 9.8
27/01:00am 11.7 10.7 10.9 95 0.4 NE 7 9 4 5 1010.3 1010.3 9.8
27/12:30am 11.9 10.6 11.1 95 0.4 NE 9 11 5 6 1010.2 1010.2 9.8
27/12:00am 12.3 11.0 11.4 94 0.5 NE 9 13 5 7 1010.1 1010.1 9.6
 
Date/Time
WST
Temp
°C
App
Temp
°C
Dew
Point
°C
Rel
Hum
%
Delta-T
°C
Wind Press
QNH
hPa
Press
MSL
hPa
Rain since
9am
mm
Dir  Spd
km/h
Gust
km/h
Spd
kts
Gust
kts
26/11:30pm 12.5 10.9 11.4 93 0.6 NE 11 15 6 8 1010.2 1010.2 9.6
26/11:00pm 12.7 10.6 11.3 91 0.7 NNE 13 17 7 9 1010.4 1010.4 9.6
26/10:30pm 13.5 11.2 10.5 82 1.6 NNE 13 15 7 8 1010.5 1010.5 9.0
26/10:00pm 13.9 12.0 10.5 80 1.8 NNE 11 17 6 9 1010.8 1010.8 9.0
26/09:30pm 14.7 12.3 9.9 73 2.5 NNW 13 15 7 8 1010.8 1010.8 9.0
26/09:00pm 14.8 12.6 9.2 69 2.9 NNW 11 15 6 8 1010.8 1010.8 9.0
26/08:30pm 14.8 12.2 9.2 69 2.9 NNW 13 19 7 10 1010.7 1010.7 9.0
26/08:00pm 15.4 12.4 9.1 66 3.2 NW 15 19 8 10 1010.6 1010.6 9.0
26/07:30pm 16.2 12.7 10.1 67 3.2 WNW 19 28 10 15 1010.4 1010.4 9.0
26/07:00pm 16.4 13.9 9.8 65 3.5 WNW 13 19 7 10 1010.1 1010.1 9.0
26/06:30pm 16.8 12.9 9.5 62 3.8 WNW 20 30 11 16 1010.0 1010.0 9.0
26/06:00pm 17.2 13.5 10.3 64 3.7 W 20 30 11 16 1009.7 1009.7 9.0
26/05:30pm 17.6 14.6 10.5 63 3.8 W 17 28 9 15 1009.3 1009.3 9.0
26/05:00pm 17.9 13.3 9.8 59 4.3 W 24 39 13 21 1009.2 1009.2 9.0
26/04:30pm 18.8 14.5 10.6 59 4.4 W 24 37 13 20 1008.8 1008.8 9.0
26/04:00pm 19.3 13.2 9.8 54 5.1 W 32 41 17 22 1008.5 1008.5 9.0
26/03:30pm 18.6 13.4 11.7 64 3.8 W 30 44 16 24 1008.2 1008.2 9.0
26/03:00pm 18.7 13.3 10.8 60 4.3 WNW 30 39 16 21 1008.1 1008.1 9.0
26/02:30pm 19.7 14.2 10.4 55 5.0 W 30 37 16 20 1007.8 1007.8 9.0
26/02:00pm 20.0 14.3 11.2 57 4.8 W 32 44 17 24 1007.6 1007.6 9.0
26/01:30pm 20.0 15.0 9.6 51 5.5 WNW 26 37 14 20 1007.6 1007.6 9.0
26/01:00pm 18.7 15.2 12.2 66 3.6 W 22 32 12 17 1007.5 1007.5 9.0
26/12:30pm 17.1 13.0 11.4 69 3.1 WSW 24 39 13 21 1007.7 1007.7 9.0
26/12:19pm 18.2 15.1 11.5 65 3.7 WSW 19 48 10 26 1007.8 1007.8 9.0
26/12:00pm 18.7 18.0 12.0 65 3.7 SSE 7 11 4 6 1007.7 1007.7 9.0
26/11:30am 16.6 15.0 10.2 66 3.4 SSE 9 15 5 8 1007.9 1007.9 8.8
26/11:00am 15.9 13.1 11.5 75 2.4 SSW 17 26 9 14 1008.5 1008.5 8.8
26/10:30am 14.9 11.0 12.0 83 1.6 SW 24 35 13 19 1008.5 1008.5 8.8
26/10:00am 16.4 15.8 13.5 83 1.6 N 9 13 5 7 1008.0 1008.0 8.2
26/09:30am 14.2 13.2 12.4 89 1.0 NE 9 13 5 7 1007.7 1007.7 8.2
26/09:12am 14.1 11.7 11.4 84 1.4 ENE 15 28 8 15 1007.8 1007.8 8.0
26/09:00am 14.8 13.1 13.5 92 0.7 NNE 15 30 8 16 1008.5 1008.5 9.2
26/08:30am 15.6 16.3 13.3 86 1.3 NW 2 7 1 4 1007.7 1007.7 1.8
26/08:20am 15.9 15.6 13.4 85 1.4 SW 7 11 4 6 1007.7 1007.7 0.2
26/08:00am 15.6 15.4 12.9 84 1.5 SSW 6 13 3 7 1007.3 1007.3 0.2
26/07:30am 15.1 13.1 12.8 86 1.3 NNE 15 20 8 11 1007.0 1007.0 0.2
26/07:00am 13.7 12.0 12.3 91 0.8 NNE 13 15 7 8 1006.7 1006.7 0.2
26/06:30am 13.7 12.0 12.4 92 0.7 NNE 13 17 7 9 1006.3 1006.3 0.2
26/06:00am 13.6 11.2 12.5 93 0.6 NNE 17 22 9 12 1006.0 1006.0 0.2
26/05:30am 13.3 10.8 12.4 94 0.5 NNE 17 20 9 11 1005.8 1005.8 0.2
26/05:00am 13.2 11.5 12.4 95 0.4 NNE 13 17 7 9 1005.5 1005.5 0.2
26/04:30am 12.9 11.9 12.3 96 0.3 NNE 9 11 5 6 1005.4 1005.4 0.2
26/04:00am 11.9 10.9 11.1 95 0.4 NNE 7 9 4 5 1005.2 1005.2 0.2
26/03:30am 12.1 10.4 11.3 95 0.4 NNE 11 13 6 7 1005.3 1005.3 0.2
26/03:00am 12.0 10.3 11.1 94 0.5 NNE 11 13 6 7 1005.4 1005.4 0.2
26/02:30am 11.7 9.4 10.6 93 0.6 NE 13 15 7 8 1005.4 1005.4 0.2
26/02:00am 11.2 9.2 10.1 93 0.6 E 11 13 6 7 1005.4 1005.4 0.2
26/01:30am 11.0 8.9 9.8 92 0.6 N 11 15 6 8 1005.6 1005.6 0.2
26/01:00am 11.0 9.8 9.6 91 0.7 NNE 6 9 3 5 1005.4 1005.4 0.2
26/12:30am 11.6 11.6 9.9 89 0.9 CALM 0 0 0 0 1005.4 1005.4 0.2
26/12:00am 12.6 11.9 10.1 85 1.3 SW 4 7 2 4 1005.3 1005.3 0.2
 
Date/Time
WST
Temp
°C
App
Temp
°C
Dew
Point
°C
Rel
Hum
%
Delta-T
°C
Wind Press
QNH
hPa
Press
MSL
hPa
Rain since
9am
mm
Dir  Spd
km/h
Gust
km/h
Spd
kts
Gust
kts
25/11:30pm 14.7 12.9 10.9 78 2.0 WSW 11 15 6 8 1005.4 1005.4 0.2
25/11:00pm 15.6 12.6 10.8 73 2.6 SSW 17 22 9 12 1005.7 1005.7 0.2
25/10:30pm 15.6 11.4 11.2 75 2.4 SE 24 32 13 17 1006.1 1006.1 0.0
25/10:00pm 18.0 14.3 9.6 58 4.4 SSW 19 24 10 13 1007.3 1007.3 0.0
25/09:30pm 17.4 15.3 9.8 61 4.0 SSW 11 13 6 7 1007.1 1007.1 0.0
25/09:00pm 17.8 15.2 9.4 58 4.4 SSW 13 15 7 8 1007.2 1007.2 0.0
25/08:30pm 17.3 15.2 9.7 61 4.0 S 11 13 6 7 1007.5 1007.5 0.0
25/08:00pm 16.6 13.9 8.8 60 4.0 SW 13 15 7 8 1007.5 1007.5 0.0
25/07:30pm 18.7 15.9 8.7 52 5.2 SW 13 17 7 9 1007.2 1007.2 0.0
25/07:00pm 18.8 16.0 8.5 51 5.4 SW 13 15 7 8 1007.1 1007.1 0.0
25/06:30pm 19.5 16.6 8.2 48 5.8 SSW 13 15 7 8 1006.7 1006.7 0.0
25/06:00pm 20.8 18.6 7.8 43 6.7 SSE 9 13 5 7 1006.5 1006.5 0.0
25/05:30pm 21.7 18.8 8.2 42 7.1 SE 13 15 7 8 1006.3 1006.3 0.0
25/05:00pm 22.4 18.7 8.1 40 7.5 ESE 17 22 9 12 1006.3 1006.3 0.0
25/04:30pm 22.9 18.7 8.2 39 7.8 SE 20 26 11 14 1006.3 1006.3 0.0
25/04:00pm 23.0 19.1 8.7 40 7.6 SE 19 33 10 18 1006.6 1006.6 0.0
25/03:30pm 22.6 18.5 8.0 39 7.7 E 19 28 10 15 1007.0 1007.0 0.0
25/03:00pm 22.5 16.6 7.5 38 7.8 ESE 28 35 15 19 1007.4 1007.4 0.0
25/02:30pm 22.5 17.1 8.2 40 7.5 E 26 35 14 19 1007.7 1007.7 0.0
25/02:00pm 22.2 17.0 7.2 38 7.8 E 24 35 13 19 1008.1 1008.1 0.0
25/01:30pm 22.0 16.9 7.8 40 7.4 E 24 35 13 19 1008.4 1008.4 0.0
25/01:00pm 21.4 15.1 7.6 41 7.2 E 30 37 16 20 1008.9 1008.9 0.0
25/12:30pm 20.5 14.2 7.2 42 6.8 ESE 30 43 16 23 1009.4 1009.4 0.0
25/12:00pm 19.7 12.9 6.8 43 6.5 ESE 32 43 17 23 1010.0 1010.0 0.0
25/11:30am 18.5 11.5 6.7 46 5.9 ESE 33 41 18 22 1010.8 1010.8 0.0
25/11:00am 17.2 8.0 6.4 49 5.3 E 44 56 24 30 1011.2 1011.2 0.0
25/10:39am 16.7 10.4 5.9 49 5.2 E 28 50 15 27 1011.9 1011.9 0.0
25/10:30am 16.5 11.0 5.8 49 5.2 E 24 33 13 18 1012.0 1012.0 0.0
25/10:00am 14.4 10.8 5.2 54 4.3 E 13 28 7 15 1012.4 1012.4 0.0
25/09:30am 13.3 8.9 5.0 57 3.8 E 17 32 9 17 1012.6 1012.6 0.0
25/09:00am 13.2 8.3 5.1 58 3.8 E 20 35 11 19 1012.9 1012.9 0.0
25/08:30am 13.3 8.0 5.2 58 3.8 E 22 37 12 20 1013.1 1013.1 0.0
25/08:00am 13.3 8.6 5.0 57 3.8 ENE 19 28 10 15 1013.2 1013.2 0.0
25/07:30am 12.4 7.5 4.9 60 3.4 E 20 37 11 20 1013.3 1013.3 0.0
25/07:00am 11.8 7.4 4.8 62 3.2 SE 17 32 9 17 1013.3 1013.3 0.0
25/06:30am 11.1 6.0 4.3 63 3.0 SE 20 33 11 18 1013.2 1013.2 0.0
25/06:00am 11.0 6.2 4.5 64 2.9 ESE 19 33 10 18 1013.0 1013.0 0.0
25/05:30am 11.1 6.0 4.3 63 3.0 ESE 20 35 11 19 1013.1 1013.1 0.0
25/05:00am 11.2 5.7 4.2 62 3.1 ESE 22 50 12 27 1013.2 1013.2 0.0
25/04:30am 11.2 3.8 4.2 62 3.1 ESE 32 52 17 28 1013.3 1013.3 0.0
25/04:08am 11.2 2.9 4.0 61 3.2 ESE 37 56 20 30 1013.5 1013.5 0.0
25/04:00am 11.1 2.7 3.9 61 3.2 ESE 37 52 20 28 1013.6 1013.6 0.0
25/03:35am 11.3 3.9 4.1 61 3.2 ESE 32 50 17 27 1013.8 1013.8 0.0
25/03:30am 11.3 3.9 4.1 61 3.2 ESE 32 48 17 26 1013.9 1013.9 0.0
25/03:00am 11.4 4.0 3.9 60 3.3 E 32 50 17 27 1014.5 1014.5 0.0
25/02:37am 11.6 3.6 3.9 59 3.4 ESE 35 54 19 29 1014.8 1014.8 0.0
25/02:30am 11.7 3.4 4.0 59 3.4 ESE 37 54 20 29 1014.9 1014.9 0.0
25/02:00am 11.9 2.8 3.9 58 3.6 ESE 41 59 22 32 1015.1 1015.1 0.0
25/01:30am 12.2 3.5 3.9 57 3.7 E 39 61 21 33 1015.9 1015.9 0.0
25/01:01am 12.5 3.8 4.0 56 3.8 E 39 61 21 33 1016.1 1016.1 0.0
25/01:00am 12.5 3.8 4.0 56 3.8 E 39 52 21 28 1016.1 1016.1 0.0
25/12:30am 12.9 3.4 4.1 55 4.0 E 43 61 23 33 1016.2 1016.2 0.0
25/12:02am 13.5 4.8 4.1 53 4.3 E 39 57 21 31 1016.3 1016.3 0.0
25/12:00am 13.5 4.8 4.1 53 4.3 ESE 39 56 21 30 1016.4 1016.4 0.0
 
Date/Time
WST
Temp
°C
App
Temp
°C
Dew
Point
°C
Rel
Hum
%
Delta-T
°C
Wind Press
QNH
hPa
Press
MSL
hPa
Rain since
9am
mm
Dir  Spd
km/h
Gust
km/h
Spd
kts
Gust
kts
24/11:30pm 14.2 6.7 4.2 51 4.6 ESE 33 54 18 29 1016.6 1016.6 0.0
24/11:00pm 14.5 6.9 3.9 49 4.8 ESE 33 54 18 29 1016.8 1016.8 0.0
24/10:38pm 14.9 7.5 4.0 48 5.0 ESE 32 50 17 27 1017.2 1017.2 0.0
24/10:30pm 15.0 7.6 4.1 48 5.0 ESE 32 43 17 23 1017.3 1017.3 0.0
24/10:00pm 15.5 9.9 3.6 45 5.4 ESE 22 43 12 23 1017.7 1017.7 0.0
24/09:30pm 15.9 12.0 3.4 43 5.7 SE 13 24 7 13 1018.1 1018.1 0.0
24/09:18pm 15.7 11.4 3.2 43 5.7 SE 15 33 8 18 1018.3 1018.3 0.0
24/09:00pm 15.5 11.6 3.3 44 5.5 SSE 13 19 7 10 1018.4 1018.4 0.0
24/08:30pm 16.0 12.5 3.4 43 5.8 SSE 11 15 6 8 1018.6 1018.6 0.0
24/08:00pm 15.3 11.5 4.1 47 5.2 S 13 17 7 9 1018.7 1018.7 0.0
24/07:30pm 16.1 12.5 2.9 41 6.0 SSE 11 15 6 8 1018.7 1018.7 0.0
24/07:00pm 16.5 12.2 3.2 41 6.1 SSE 15 26 8 14 1018.6 1018.6 0.0
24/06:30pm 17.1 12.4 3.1 39 6.4 SE 17 24 9 13 1018.5 1018.5 0.0
24/06:00pm 18.2 13.1 3.3 37 6.9 SE 19 26 10 14 1018.4 1018.4 0.0
24/05:30pm 19.0 12.3 3.6 36 7.3 SE 28 37 15 20 1018.5 1018.5 0.0
24/05:00pm 19.3 12.6 3.5 35 7.4 ESE 28 39 15 21 1018.5 1018.5 0.0
24/04:30pm 20.1 13.1 4.2 35 7.6 ESE 30 41 16 22 1018.6 1018.6 0.0
24/04:00pm 20.4 13.4 4.0 34 7.8 SE 30 39 16 21 1018.8 1018.8 0.0
24/03:30pm 20.6 14.8 4.6 35 7.8 SE 24 35 13 19 1019.0 1019.0 0.0
24/03:00pm 20.7 15.0 4.7 35 7.8 ESE 24 33 13 18 1019.1 1019.1 0.0
24/02:30pm 20.2 13.7 4.7 36 7.5 ESE 28 37 15 20 1019.6 1019.6 0.0
24/02:00pm 20.0 13.6 5.3 38 7.2 E 28 35 15 19 1020.1 1020.1 0.0
24/01:30pm 19.6 13.6 5.3 39 7.0 E 26 39 14 21 1020.6 1020.6 0.0
24/01:00pm 19.3 13.2 5.0 39 6.9 ESE 26 33 14 18 1021.2 1021.2 0.0
24/12:30pm 19.3 12.1 5.0 39 6.9 ESE 32 41 17 22 1021.7 1021.7 0.0
24/12:00pm 18.5 11.8 5.4 42 6.3 ESE 30 48 16 26 1022.3 1022.3 0.0
24/11:55am 18.4 11.9 4.9 41 6.5 E 28 48 15 26 1022.4 1022.4 0.0
24/11:30am 18.2 12.7 5.8 44 6.1 ESE 24 37 13 20 1022.8 1022.8 0.0
24/11:12am 17.5 11.0 4.8 43 6.1 E 28 50 15 27 1023.2 1023.2 0.0
24/11:00am 17.6 10.9 5.5 45 5.8 E 30 44 16 24 1023.4 1023.4 0.0
24/10:30am 16.9 9.5 5.2 46 5.6 E 33 43 18 23 1023.8 1023.8 0.0
24/10:00am 16.3 9.3 5.9 50 5.0 E 32 46 17 25 1024.3 1024.3 0.0
24/09:38am 15.9 7.9 5.5 50 5.0 E 37 56 20 30 1024.6 1024.6 0.0
24/09:30am 15.4 6.9 5.3 51 4.8 E 39 54 21 29 1024.7 1024.7 0.0
24/09:00am 14.9 7.7 4.9 51 4.7 E 32 50 17 27 1024.8 1024.8 0.0
24/08:30am 14.2 6.0 5.0 54 4.3 E 37 56 20 30 1025.1 1025.1 0.0
24/08:00am 13.8 7.1 5.7 58 3.8 E 30 54 16 29 1025.1 1025.1 0.0
24/07:30am 13.1 6.5 6.0 62 3.4 E 30 50 16 27 1025.0 1025.0 0.0
24/07:26am 13.1 6.9 6.2 63 3.3 E 28 50 15 27 1025.0 1025.0 0.0
24/07:00am 12.9 6.0 6.5 65 3.0 ESE 32 43 17 23 1024.8 1024.8 0.0
24/06:30am 12.3 7.7 6.4 67 2.8 ESE 20 33 11 18 1024.3 1024.3 0.0
24/06:00am 11.8 6.2 7.1 73 2.2 E 26 41 14 22 1024.1 1024.1 0.0
24/05:30am 12.0 7.7 7.1 72 2.4 ESE 19 33 10 18 1023.8 1023.8 0.0
24/05:00am 12.5 8.1 7.6 72 2.4 ESE 20 32 11 17 1023.4 1023.4 0.0
24/04:30am 12.4 8.0 7.3 71 2.5 ESE 20 32 11 17 1023.2 1023.2 0.0
24/04:00am 12.4 8.2 7.3 71 2.5 ESE 19 26 10 14 1023.0 1023.0 0.0
24/03:30am 12.4 8.5 7.3 71 2.5 SE 17 24 9 13 1022.9 1022.9 0.0

Latest Capital City Observations: Canberra | Sydney | Melbourne | Brisbane | Adelaide | Perth | Hobart | Darwin

Other formats

Comma delimited format used in spreadsheet applications
http://www.bom.gov.au/fwo/IDW60901/IDW60901.94610.axf

JavaScript Object Notation format (JSON) in row-major order
http://www.bom.gov.au/fwo/IDW60901/IDW60901.94610.json

Data quality

Most of these data are generated automatically and are frequently updated. Quality checks on data are not normally performed. It is possible for incorrect values to appear. Refer to information at About Latest Weather Observations and please check the disclaimer before using these data.